Time;durP1;ratioP1;P1;durP2;ratioP2;P2;SDS_P1;SDS_P2;PMS_P1;PMS_P2;Temp;Humidity;BMP_temperature;BMP_pressure;BME280_temperature;BME280_humidity;BME280_pressure;Samples;Min_cycle;Max_cycle;Signal;HPM_P1;HPM_P2
2024/01/06 00:00:17;;;;;;;91.50;47.60;;;;;;;0.56;100.00;97928.73;109480;1251;64137;-75
2024/01/06 00:03:03;;;;;;;101.30;47.20;;;;;;;0.57;100.00;97932.50;109479;1251;58962;-74
2024/01/06 00:05:30;;;;;;;98.30;48.90;;;;;;;0.59;100.00;97931.39;109527;1251;59803;-73
2024/01/06 00:07:57;;;;;;;112.00;52.50;;;;;;;0.61;100.00;97931.13;109518;1251;67032;-74
2024/01/06 00:10:23;;;;;;;101.30;50.60;;;;;;;0.63;100.00;97934.20;109495;1251;61085;-74
2024/01/06 00:12:50;;;;;;;89.50;49.80;;;;;;;0.63;100.00;97931.55;108735;1251;1003071;-73
2024/01/06 00:15:16;;;;;;;102.30;47.80;;;;;;;0.63;100.00;97931.89;109448;1251;59707;-74
2024/01/06 00:17:43;;;;;;;92.50;45.40;;;;;;;0.64;100.00;97927.17;109527;1251;59331;-75
2024/01/06 00:20:10;;;;;;;94.50;48.30;;;;;;;0.65;100.00;97919.78;109512;1251;65976;-74
2024/01/06 00:22:37;;;;;;;92.60;48.20;;;;;;;0.65;100.00;97915.05;109524;1251;61506;-74
2024/01/06 00:25:04;;;;;;;94.20;47.80;;;;;;;0.64;100.00;97913.17;109528;1251;63889;-74
2024/01/06 00:27:30;;;;;;;101.70;49.50;;;;;;;0.64;100.00;97910.20;109506;1251;59087;-75
2024/01/06 00:29:57;;;;;;;95.80;49.10;;;;;;;0.64;100.00;97909.68;109489;1251;59081;-75
2024/01/06 00:32:23;;;;;;;100.70;50.00;;;;;;;0.64;100.00;97905.81;109523;1251;67251;-75
2024/01/06 00:34:50;;;;;;;100.10;50.90;;;;;;;0.64;100.00;97908.94;109524;1251;60200;-73
2024/01/06 00:37:16;;;;;;;88.80;48.90;;;;;;;0.64;100.00;97907.23;109461;1251;63737;-74
2024/01/06 00:39:43;;;;;;;103.70;50.80;;;;;;;0.65;100.00;97902.80;109510;1251;59061;-74
2024/01/06 00:42:10;;;;;;;106.60;55.70;;;;;;;0.67;100.00;97903.26;109510;1251;59372;-74
2024/01/06 00:44:37;;;;;;;99.20;51.10;;;;;;;0.67;100.00;97900.47;109477;1251;65907;-74
2024/01/06 00:47:04;;;;;;;100.30;53.40;;;;;;;0.66;100.00;97904.34;109527;1251;60875;-74
2024/01/06 00:49:30;;;;;;;102.00;47.90;;;;;;;0.67;100.00;97901.66;109515;1251;64860;-74
2024/01/06 00:51:57;;;;;;;89.10;50.30;;;;;;;0.67;100.00;97896.97;109511;1251;58996;-75
2024/01/06 00:54:23;;;;;;;92.90;51.10;;;;;;;0.67;100.00;97902.21;109542;1251;58872;-74
2024/01/06 00:56:50;;;;;;;94.70;50.30;;;;;;;0.67;100.00;97904.99;109539;1251;67129;-74
2024/01/06 00:59:16;;;;;;;93.00;51.50;;;;;;;0.68;100.00;97904.62;109496;1251;59690;-73
2024/01/06 01:01:43;;;;;;;92.10;48.20;;;;;;;0.68;100.00;97902.70;109541;1251;64020;-73
2024/01/06 01:04:10;;;;;;;82.60;46.00;;;;;;;0.67;100.00;97904.12;109485;1251;59254;-74
2024/01/06 01:06:37;;;;;;;90.30;51.40;;;;;;;0.67;100.00;97900.82;109517;1251;59105;-73
2024/01/06 01:09:04;;;;;;;91.80;47.80;;;;;;;0.66;100.00;97904.50;109524;1251;67381;-75
2024/01/06 01:11:31;;;;;;;80.70;47.50;;;;;;;0.66;100.00;97901.55;109505;1251;61147;-74
2024/01/06 01:13:57;;;;;;;91.40;50.10;;;;;;;0.65;100.00;97900.89;109502;1251;65260;-74
2024/01/06 01:16:24;;;;;;;89.80;50.30;;;;;;;0.64;100.00;97901.59;109479;1251;59058;-74
2024/01/06 01:18:51;;;;;;;85.70;45.90;;;;;;;0.65;100.00;97907.35;109540;1251;59263;-74
2024/01/06 01:21:17;;;;;;;95.60;52.40;;;;;;;0.67;100.00;97912.86;109544;1251;66974;-74
2024/01/06 01:23:44;;;;;;;81.10;46.60;;;;;;;0.69;100.00;97915.92;109515;1251;61098;-74
2024/01/06 01:26:10;;;;;;;96.80;52.50;;;;;;;0.71;100.00;97920.39;109505;1251;65101;-74
2024/01/06 01:28:37;;;;;;;93.40;51.50;;;;;;;0.73;100.00;97926.95;109491;1251;59595;-74
2024/01/06 01:31:04;;;;;;;96.40;52.80;;;;;;;0.75;100.00;97929.13;109492;1251;58835;-74
2024/01/06 01:33:30;;;;;;;87.30;50.50;;;;;;;0.76;100.00;97937.63;109543;1251;67209;-74
2024/01/06 01:35:57;;;;;;;88.70;48.90;;;;;;;0.77;100.00;97933.04;109480;1251;60141;-74
2024/01/06 01:38:23;;;;;;;94.70;52.80;;;;;;;0.79;100.00;97928.24;109535;1251;64212;-73
2024/01/06 01:40:50;;;;;;;87.10;48.70;;;;;;;0.80;100.00;97928.04;109500;1251;59157;-73
2024/01/06 01:43:21;;;;;;;92.80;52.50;;;;;;;0.80;100.00;97924.67;109504;1251;58890;-74
2024/01/06 01:45:53;;;;;;;95.20;52.70;;;;;;;0.80;100.00;97925.95;109530;1251;67372;-74
2024/01/06 01:48:21;;;;;;;97.60;52.10;;;;;;;0.79;100.00;97926.33;108750;1251;1002992;-73
2024/01/06 01:50:48;;;;;;;93.90;50.80;;;;;;;0.78;100.00;97924.26;109509;1251;65237;-74
2024/01/06 01:53:15;;;;;;;96.60;50.10;;;;;;;0.78;100.00;97919.20;109524;1251;59016;-74
2024/01/06 01:55:43;;;;;;;100.50;53.10;;;;;;;0.78;100.00;97914.64;109501;1251;59284;-74
2024/01/06 01:58:12;;;;;;;99.40;52.30;;;;;;;0.78;100.00;97908.53;109514;1251;66945;-74
2024/01/06 02:00:39;;;;;;;98.50;50.90;;;;;;;0.76;100.00;97909.67;109510;1251;60002;-74
2024/01/06 02:03:09;;;;;;;88.70;50.40;;;;;;;0.75;100.00;97907.97;109508;1251;65059;-74
2024/01/06 02:05:35;;;;;;;96.80;51.70;;;;;;;0.74;100.00;97909.77;109528;1251;59162;-73
2024/01/06 02:08:02;;;;;;;97.20;53.10;;;;;;;0.74;100.00;97912.73;109520;1251;59373;-74
2024/01/06 02:10:29;;;;;;;89.80;50.00;;;;;;;0.74;100.00;97913.23;109494;1251;66759;-74
2024/01/06 02:12:55;;;;;;;93.60;50.70;;;;;;;0.76;100.00;97918.04;109506;1251;60019;-74
2024/01/06 02:15:22;;;;;;;103.80;55.60;;;;;;;0.79;100.00;97916.87;109487;1251;64041;-74
2024/01/06 02:17:49;;;;;;;96.40;52.80;;;;;;;0.81;100.00;97916.61;109316;1251;59007;-74
2024/01/06 02:20:19;;;;;;;97.10;51.10;;;;;;;0.84;100.00;97923.48;109560;1251;58923;-74
2024/01/06 02:22:46;;;;;;;101.90;52.80;;;;;;;0.86;100.00;97921.10;109528;1251;66986;-74
2024/01/06 02:25:13;;;;;;;103.20;53.00;;;;;;;0.89;100.00;97920.10;109516;1251;60267;-74
2024/01/06 02:27:40;;;;;;;98.50;52.60;;;;;;;0.91;100.00;97919.83;109466;1251;64073;-74
2024/01/06 02:30:07;;;;;;;99.30;53.90;;;;;;;0.95;100.00;97921.42;109473;1251;58950;-74
2024/01/06 02:32:34;;;;;;;102.30;56.50;;;;;;;0.97;100.00;97916.41;109479;1251;59162;-74
2024/01/06 02:35:01;;;;;;;102.50;56.80;;;;;;;0.98;100.00;97912.16;109500;1251;65691;-74
2024/01/06 02:37:27;;;;;;;101.50;55.50;;;;;;;1.00;100.00;97905.42;109517;1251;59976;-74
2024/01/06 02:39:54;;;;;;;95.60;51.90;;;;;;;1.01;100.00;97908.34;109502;1251;64078;-74
2024/01/06 02:42:21;;;;;;;96.90;54.90;;;;;;;1.01;100.00;97903.95;109502;1251;58995;-74
2024/01/06 02:44:47;;;;;;;93.70;53.10;;;;;;;1.02;100.00;97902.20;109510;1251;59068;-74
2024/01/06 02:47:14;;;;;;;95.50;54.60;;;;;;;1.01;100.00;97896.65;109498;1251;66823;-74
2024/01/06 02:49:40;;;;;;;91.80;49.60;;;;;;;1.00;100.00;97893.71;109514;1251;61581;-74
2024/01/06 02:52:07;;;;;;;94.20;51.20;;;;;;;1.00;100.00;97897.20;109501;1251;72043;-74
2024/01/06 02:54:33;;;;;;;90.10;53.30;;;;;;;1.01;100.00;97898.73;109483;1251;59399;-74
2024/01/06 02:57:00;;;;;;;87.80;50.20;;;;;;;1.02;100.00;97900.25;109489;1251;59229;-74
2024/01/06 02:59:27;;;;;;;87.10;50.00;;;;;;;1.04;100.00;97899.13;109405;1251;65951;-74
2024/01/06 03:01:53;;;;;;;96.30;53.20;;;;;;;1.06;100.00;97900.25;109508;1251;61046;-74
2024/01/06 03:04:20;;;;;;;88.90;51.60;;;;;;;1.07;100.00;97896.53;107965;1251;1002989;-74
2024/01/06 03:06:52;;;;;;;91.00;51.50;;;;;;;1.07;100.00;97891.98;109537;1251;59020;-74
2024/01/06 03:09:19;;;;;;;84.10;50.50;;;;;;;1.08;100.00;97881.64;109504;1251;59073;-74
2024/01/06 03:11:45;;;;;;;82.30;48.40;;;;;;;1.06;100.00;97884.48;109546;1251;67000;-75
2024/01/06 03:14:12;;;;;;;84.00;50.50;;;;;;;1.04;100.00;97875.66;109561;1251;61176;-74
2024/01/06 03:16:39;;;;;;;82.00;48.00;;;;;;;1.02;100.00;97880.14;109454;1251;63919;-74
2024/01/06 03:19:06;;;;;;;86.10;49.20;;;;;;;1.00;100.00;97886.86;109515;1251;59213;-74
2024/01/06 03:21:32;;;;;;;85.80;51.30;;;;;;;0.99;100.00;97885.36;109485;1251;59048;-74
2024/01/06 03:24:00;;;;;;;76.10;47.80;;;;;;;0.97;100.00;97881.59;109565;1251;66846;-73
2024/01/06 03:26:26;;;;;;;85.00;48.10;;;;;;;0.96;100.00;97885.33;109340;1251;59281;-75
2024/01/06 03:28:54;;;;;;;82.90;49.80;;;;;;;0.96;100.00;97889.17;109486;1251;65071;-74
2024/01/06 03:31:22;;;;;;;87.60;50.10;;;;;;;0.96;100.00;97886.55;109541;1251;58952;-74
2024/01/06 03:33:48;;;;;;;88.00;50.40;;;;;;;0.97;100.00;97885.08;109513;1251;59124;-74
2024/01/06 03:36:16;;;;;;;88.00;52.80;;;;;;;0.99;100.00;97881.48;109503;1251;74935;-74
2024/01/06 03:38:43;;;;;;;82.80;52.60;;;;;;;1.01;100.00;97884.06;109462;1251;59236;-73
2024/01/06 03:41:09;;;;;;;87.30;53.70;;;;;;;1.02;100.00;97881.74;109484;1251;65575;-72
2024/01/06 03:43:36;;;;;;;85.30;52.60;;;;;;;1.03;100.00;97884.30;109451;1252;59097;-73
2024/01/06 03:46:03;;;;;;;90.60;51.60;;;;;;;1.04;100.00;97885.33;109456;1252;59033;-74
2024/01/06 03:48:29;;;;;;;82.30;48.40;;;;;;;1.05;100.00;97885.07;109424;1252;67217;-74
2024/01/06 03:50:56;;;;;;;80.40;47.80;;;;;;;1.05;100.00;97883.48;109413;1252;61261;-74
2024/01/06 03:53:23;;;;;;;80.10;47.30;;;;;;;1.05;100.00;97881.56;109433;1252;63973;-74
2024/01/06 03:55:49;;;;;;;78.80;48.50;;;;;;;1.05;100.00;97883.67;109409;1252;58957;-74
2024/01/06 03:58:16;;;;;;;82.90;48.40;;;;;;;1.06;100.00;97884.66;109397;1252;59077;-74
2024/01/06 04:00:42;;;;;;;80.40;50.20;;;;;;;1.07;100.00;97886.90;109460;1252;64767;-74
2024/01/06 04:03:09;;;;;;;80.40;48.80;;;;;;;1.09;100.00;97884.35;109437;1252;61090;-74
2024/01/06 04:05:35;;;;;;;84.20;49.80;;;;;;;1.10;100.00;97883.80;109431;1252;64005;-74
2024/01/06 04:08:02;;;;;;;82.60;49.30;;;;;;;1.12;100.00;97882.13;109429;1252;59163;-74
2024/01/06 04:10:29;;;;;;;84.00;50.20;;;;;;;1.14;100.00;97878.21;109434;1252;59101;-74
2024/01/06 04:12:55;;;;;;;86.70;49.70;;;;;;;1.14;100.00;97886.95;109458;1252;67273;-74
2024/01/06 04:15:22;;;;;;;87.90;52.10;;;;;;;1.16;100.00;97889.83;109398;1252;61066;-74
2024/01/06 04:17:49;;;;;;;86.90;50.30;;;;;;;1.18;100.00;97888.52;109424;1252;63992;-74
2024/01/06 04:20:16;;;;;;;86.00;52.30;;;;;;;1.20;100.00;97887.38;109414;1252;59069;-74
2024/01/06 04:22:42;;;;;;;84.30;50.50;;;;;;;1.22;100.00;97893.89;109414;1252;59607;-75
2024/01/06 04:25:09;;;;;;;87.40;51.10;;;;;;;1.24;100.00;97890.36;109409;1252;67020;-75
2024/01/06 04:27:35;;;;;;;85.40;51.20;;;;;;;1.24;100.00;97887.70;109456;1252;60998;-74
2024/01/06 04:30:02;;;;;;;85.30;48.90;;;;;;;1.25;100.00;97884.67;109331;1252;65169;-74
2024/01/06 04:32:29;;;;;;;81.40;49.30;;;;;;;1.25;100.00;97886.92;109399;1252;58974;-74
2024/01/06 04:34:57;;;;;;;82.60;50.40;;;;;;;1.26;100.00;97891.09;109166;1252;59167;-74
2024/01/06 04:37:23;;;;;;;95.60;61.80;;;;;;;1.27;100.00;97899.59;109422;1252;67089;-74
2024/01/06 04:39:50;;;;;;;89.60;55.90;;;;;;;1.28;100.00;97905.67;109454;1252;61521;-75
2024/01/06 04:42:16;;;;;;;85.20;51.50;;;;;;;1.31;100.00;97909.06;109388;1252;64223;-73
2024/01/06 04:44:43;;;;;;;92.90;55.70;;;;;;;1.33;100.00;97910.36;109422;1252;59027;-74
2024/01/06 04:47:09;;;;;;;81.60;51.10;;;;;;;1.34;100.00;97906.65;109166;1252;59307;-74
2024/01/06 04:49:36;;;;;;;83.10;53.00;;;;;;;1.37;100.00;97909.65;109419;1252;67027;-75
2024/01/06 04:52:03;;;;;;;106.30;62.20;;;;;;;1.41;100.00;97913.02;109422;1252;61132;-74
2024/01/06 04:54:29;;;;;;;132.50;71.70;;;;;;;1.42;100.00;97909.23;109386;1252;63998;-74
2024/01/06 04:56:56;;;;;;;142.00;83.30;;;;;;;1.43;100.00;97914.42;109406;1252;59031;-74
2024/01/06 04:59:23;;;;;;;104.80;61.60;;;;;;;1.44;100.00;97913.14;109438;1252;58881;-74
2024/01/06 05:01:51;;;;;;;107.50;71.80;;;;;;;1.44;100.00;97914.55;109358;1252;66554;-73
2024/01/06 05:04:18;;;;;;;98.90;67.90;;;;;;;1.44;100.00;97915.46;109418;1252;60178;-74
2024/01/06 05:06:44;;;;;;;88.40;53.10;;;;;;;1.44;100.00;97922.45;109484;1252;65256;-73
2024/01/06 05:09:11;;;;;;;84.70;51.10;;;;;;;1.44;100.00;97917.52;109393;1252;59044;-74
2024/01/06 05:11:38;;;;;;;85.00;52.80;;;;;;;1.45;100.00;97916.45;109435;1252;58923;-73
2024/01/06 05:14:04;;;;;;;86.30;49.80;;;;;;;1.45;100.00;97916.10;109461;1252;66218;-73
2024/01/06 05:16:31;;;;;;;84.10;48.90;;;;;;;1.45;100.00;97912.08;109412;1252;61047;-74
2024/01/06 05:18:58;;;;;;;88.60;51.00;;;;;;;1.47;100.00;97909.90;109396;1252;65085;-75
2024/01/06 05:21:25;;;;;;;83.20;51.70;;;;;;;1.48;100.00;97904.42;109391;1252;59053;-74
2024/01/06 05:23:52;;;;;;;88.10;51.70;;;;;;;1.48;100.00;97903.71;109419;1252;59019;-74
2024/01/06 05:26:18;;;;;;;85.30;50.60;;;;;;;1.47;100.00;97902.34;109444;1252;67044;-74
2024/01/06 05:28:45;;;;;;;81.50;51.60;;;;;;;1.46;100.00;97903.28;109451;1252;61038;-74
2024/01/06 05:31:11;;;;;;;83.80;50.70;;;;;;;1.45;100.00;97902.46;109371;1252;65231;-73
2024/01/06 05:33:38;;;;;;;84.60;51.40;;;;;;;1.44;100.00;97902.64;109389;1252;59082;-74
2024/01/06 05:36:05;;;;;;;85.20;52.10;;;;;;;1.44;100.00;97901.27;109421;1252;59173;-73
2024/01/06 05:38:31;;;;;;;87.40;52.10;;;;;;;1.43;100.00;97901.14;109456;1252;66982;-74
2024/01/06 05:40:58;;;;;;;83.80;50.30;;;;;;;1.43;100.00;97900.81;109441;1252;61185;-74
2024/01/06 05:43:25;;;;;;;82.20;49.40;;;;;;;1.42;100.00;97895.77;109401;1252;65102;-74
2024/01/06 05:45:52;;;;;;;85.60;52.70;;;;;;;1.41;100.00;97899.98;109420;1252;58970;-74
2024/01/06 05:48:18;;;;;;;84.10;51.00;;;;;;;1.42;100.00;97900.69;109412;1252;59064;-74
2024/01/06 05:50:45;;;;;;;85.00;48.90;;;;;;;1.42;100.00;97906.98;109426;1252;66044;-74
2024/01/06 05:53:14;;;;;;;78.60;47.20;;;;;;;1.43;100.00;97907.42;109407;1252;60025;-75
2024/01/06 05:55:40;;;;;;;81.70;49.60;;;;;;;1.46;100.00;97910.64;109383;1252;63280;-75
2024/01/06 05:58:07;;;;;;;81.00;49.60;;;;;;;1.48;100.00;97913.84;109370;1252;59027;-74
2024/01/06 06:00:33;;;;;;;87.00;54.20;;;;;;;1.50;100.00;97913.55;109421;1252;59090;-74
2024/01/06 06:03:00;;;;;;;81.20;49.80;;;;;;;1.51;100.00;97911.95;105607;1252;1002812;-75
2024/01/06 06:05:27;;;;;;;91.10;53.50;;;;;;;1.52;100.00;97915.58;109324;1252;59416;-75
2024/01/06 06:07:54;;;;;;;83.20;52.00;;;;;;;1.53;100.00;97922.37;109413;1252;59035;-75
2024/01/06 06:10:21;;;;;;;80.40;50.00;;;;;;;1.54;100.00;97923.39;109426;1252;59008;-75
2024/01/06 06:12:48;;;;;;;80.60;50.30;;;;;;;1.57;100.00;97925.19;109420;1252;59038;-75
2024/01/06 06:15:14;;;;;;;78.80;50.10;;;;;;;1.59;100.00;97932.63;109390;1252;66078;-75
2024/01/06 06:17:41;;;;;;;77.80;48.10;;;;;;;1.60;100.00;97936.91;109441;1252;61109;-74
2024/01/06 06:20:07;;;;;;;76.50;49.90;;;;;;;1.62;100.00;97937.52;109376;1252;62843;-75
2024/01/06 06:22:34;;;;;;;74.40;49.50;;;;;;;1.64;100.00;97943.35;109361;1252;59311;-74
2024/01/06 06:25:00;;;;;;;77.80;48.50;;;;;;;1.67;100.00;97948.45;109441;1252;59175;-75
2024/01/06 06:27:27;;;;;;;87.10;55.20;;;;;;;1.70;100.00;97943.61;109421;1252;75597;-74
2024/01/06 06:29:56;;;;;;;86.90;54.60;;;;;;;1.72;100.00;97944.40;109399;1252;61026;-74
2024/01/06 06:32:22;;;;;;;87.90;56.70;;;;;;;1.72;100.00;97944.05;109321;1252;64003;-74
2024/01/06 06:34:49;;;;;;;86.30;55.20;;;;;;;1.72;100.00;97941.77;109377;1252;59057;-74
2024/01/06 06:37:15;;;;;;;87.80;52.10;;;;;;;1.72;100.00;97948.23;109418;1252;59214;-74
2024/01/06 06:39:44;;;;;;;83.60;54.00;;;;;;;1.73;100.00;97949.59;109412;1252;66992;-74
2024/01/06 06:42:11;;;;;;;107.80;62.80;;;;;;;1.75;100.00;97945.29;109391;1252;60069;-74
2024/01/06 06:44:38;;;;;;;103.60;60.10;;;;;;;1.77;100.00;97948.36;109387;1252;65371;-74
2024/01/06 06:47:04;;;;;;;82.20;51.70;;;;;;;1.79;100.00;97947.23;109409;1252;59061;-73
2024/01/06 06:49:31;;;;;;;88.00;53.50;;;;;;;1.79;100.00;97940.39;109470;1252;59155;-73
2024/01/06 06:51:57;;;;;;;79.70;49.60;;;;;;;1.79;100.00;97940.55;109427;1252;66134;-74
2024/01/06 06:54:24;;;;;;;84.50;51.90;;;;;;;1.80;100.00;97940.73;109449;1252;61271;-74
2024/01/06 06:56:50;;;;;;;78.30;49.70;;;;;;;1.78;100.00;97939.05;109420;1252;64032;-74
2024/01/06 06:59:17;;;;;;;81.70;50.60;;;;;;;1.75;100.00;97943.52;109397;1252;59016;-74
2024/01/06 07:01:44;;;;;;;77.70;50.70;;;;;;;1.75;100.00;97947.75;109405;1252;58923;-74
2024/01/06 07:04:10;;;;;;;80.60;49.30;;;;;;;1.74;100.00;97945.52;109430;1252;65755;-74
2024/01/06 07:06:37;;;;;;;81.80;51.40;;;;;;;1.75;100.00;97945.46;109419;1252;60060;-74
2024/01/06 07:09:04;;;;;;;83.80;52.00;;;;;;;1.77;100.00;97945.41;109403;1252;63935;-75
2024/01/06 07:11:31;;;;;;;83.40;51.80;;;;;;;1.77;100.00;97943.81;109401;1252;59295;-74
2024/01/06 07:13:58;;;;;;;78.70;51.00;;;;;;;1.77;100.00;97946.60;109423;1252;59050;-74
2024/01/06 07:16:24;;;;;;;81.90;53.90;;;;;;;1.79;100.00;97947.77;109412;1252;67029;-74
2024/01/06 07:18:51;;;;;;;93.00;63.80;;;;;;;1.80;100.00;97950.33;109400;1252;61036;-74
2024/01/06 07:21:17;;;;;;;101.20;68.80;;;;;;;1.81;100.00;97953.45;109449;1252;64841;-75
2024/01/06 07:23:44;;;;;;;112.50;74.40;;;;;;;1.82;100.00;97952.87;109411;1252;58958;-75
2024/01/06 07:26:11;;;;;;;105.30;74.50;;;;;;;1.81;100.00;97953.80;109409;1252;59052;-74
2024/01/06 07:28:38;;;;;;;101.00;66.20;;;;;;;1.82;100.00;97954.27;109402;1252;64739;-74
2024/01/06 07:31:04;;;;;;;109.30;72.80;;;;;;;1.85;100.00;97948.52;109356;1252;61089;-74
2024/01/06 07:33:31;;;;;;;103.50;67.50;;;;;;;1.88;100.00;97949.77;109421;1252;64987;-75
2024/01/06 07:35:57;;;;;;;104.10;69.80;;;;;;;1.91;100.00;97949.44;109416;1252;58991;-73
2024/01/06 07:38:24;;;;;;;111.80;67.30;;;;;;;1.95;100.00;97947.34;109360;1252;59212;-74
2024/01/06 07:40:50;;;;;;;106.20;69.60;;;;;;;1.97;100.00;97946.87;109486;1252;66000;-74
2024/01/06 07:43:17;;;;;;;144.10;98.30;;;;;;;2.02;100.00;97950.98;109409;1252;60066;-74
2024/01/06 07:45:44;;;;;;;124.80;87.40;;;;;;;2.08;100.00;97956.11;109325;1252;65040;-74
2024/01/06 07:48:11;;;;;;;114.70;78.20;;;;;;;2.14;100.00;97960.94;109440;1252;59123;-74
2024/01/06 07:50:38;;;;;;;100.30;67.10;;;;;;;2.18;100.00;97965.77;109419;1252;59123;-74
2024/01/06 07:53:04;;;;;;;94.40;64.40;;;;;;;2.23;100.00;97969.94;109125;1252;64849;-74
2024/01/06 07:55:31;;;;;;;79.70;57.00;;;;;;;2.25;100.00;97969.36;109408;1252;60189;-75
2024/01/06 07:57:57;;;;;;;97.10;66.70;;;;;;;2.27;100.00;97971.34;109421;1252;64008;-74
2024/01/06 08:00:24;;;;;;;93.20;64.20;;;;;;;2.31;100.00;97973.42;109404;1252;59266;-75
2024/01/06 08:02:51;;;;;;;96.60;68.40;;;;;;;2.33;100.00;97971.38;109142;1252;59080;-75
2024/01/06 08:05:18;;;;;;;103.20;77.40;;;;;;;2.35;100.00;97975.30;109392;1252;65687;-75
2024/01/06 08:07:44;;;;;;;100.50;77.10;;;;;;;2.35;100.00;97975.10;109394;1252;61070;-74
2024/01/06 08:10:11;;;;;;;97.10;71.50;;;;;;;2.37;100.00;97980.45;109405;1252;65013;-73
2024/01/06 08:12:38;;;;;;;90.80;64.30;;;;;;;2.41;100.00;97980.25;109393;1252;59010;-73
2024/01/06 08:15:05;;;;;;;79.30;54.50;;;;;;;2.46;100.00;97986.15;109452;1252;59016;-74
2024/01/06 08:17:31;;;;;;;85.90;57.90;;;;;;;2.49;100.00;97990.73;109247;1252;66883;-74
2024/01/06 08:19:58;;;;;;;90.00;60.20;;;;;;;2.50;100.00;97992.45;109427;1252;61228;-75
2024/01/06 08:22:25;;;;;;;84.80;61.70;;;;;;;2.51;100.00;97994.29;109451;1252;65073;-75
2024/01/06 08:24:52;;;;;;;79.60;55.80;;;;;;;2.54;100.00;97994.17;109413;1252;59088;-74
2024/01/06 08:27:19;;;;;;;81.50;53.70;;;;;;;2.56;100.00;98001.94;109468;1252;58873;-75
2024/01/06 08:29:45;;;;;;;77.20;55.20;;;;;;;2.58;100.00;98003.05;109438;1252;65786;-74
2024/01/06 08:32:12;;;;;;;80.70;54.40;;;;;;;2.62;100.00;98002.88;109416;1252;61365;-74
2024/01/06 08:34:39;;;;;;;82.50;56.00;;;;;;;2.67;100.00;98005.41;109420;1252;65043;-74
2024/01/06 08:37:06;;;;;;;81.90;56.40;;;;;;;2.72;100.00;98004.63;109397;1252;58984;-75
2024/01/06 08:39:32;;;;;;;78.00;53.50;;;;;;;2.78;100.00;98004.88;109446;1252;59059;-74
2024/01/06 08:41:59;;;;;;;79.20;55.20;;;;;;;2.81;100.00;98001.51;109403;1252;67082;-74
2024/01/06 08:44:25;;;;;;;80.10;58.20;;;;;;;2.83;100.00;97997.76;109420;1252;60853;-74
2024/01/06 08:46:52;;;;;;;82.30;56.90;;;;;;;2.86;100.00;98001.30;109419;1252;64114;-74
2024/01/06 08:49:19;;;;;;;85.60;57.70;;;;;;;2.87;100.00;97999.49;109391;1252;59060;-75
2024/01/06 08:51:45;;;;;;;78.40;56.40;;;;;;;2.88;100.00;98000.13;109152;1252;59048;-74
2024/01/06 08:54:12;;;;;;;87.10;57.20;;;;;;;2.92;100.00;98005.02;109409;1252;67110;-74
2024/01/06 08:56:38;;;;;;;80.10;57.50;;;;;;;2.95;100.00;98000.82;109440;1252;61053;-74
2024/01/06 08:59:05;;;;;;;78.60;55.70;;;;;;;2.98;100.00;98000.14;109397;1252;64033;-74
2024/01/06 09:01:32;;;;;;;81.00;57.50;;;;;;;3.01;100.00;98005.04;109325;1252;59063;-73
2024/01/06 09:03:59;;;;;;;73.60;52.80;;;;;;;3.02;100.00;98004.48;109372;1252;58921;-73
2024/01/06 09:06:25;;;;;;;78.70;57.30;;;;;;;3.03;100.00;98007.06;109465;1252;65701;-73
2024/01/06 09:08:52;;;;;;;83.60;57.70;;;;;;;3.04;100.00;98002.10;109471;1252;59252;-74
2024/01/06 09:11:18;;;;;;;74.80;51.60;;;;;;;3.06;100.00;97998.30;109392;1252;64111;-74
2024/01/06 09:13:45;;;;;;;74.10;53.80;;;;;;;3.08;100.00;97998.91;109445;1252;59045;-74
2024/01/06 09:16:12;;;;;;;75.50;52.80;;;;;;;3.12;100.00;97998.55;109462;1252;58988;-75
2024/01/06 09:18:38;;;;;;;75.30;54.00;;;;;;;3.16;100.00;98000.43;109409;1252;66054;-75
2024/01/06 09:21:05;;;;;;;76.30;53.90;;;;;;;3.22;100.00;98002.20;109431;1252;61210;-75
2024/01/06 09:23:32;;;;;;;76.30;55.30;;;;;;;3.26;100.00;98004.29;109201;1252;65413;-73
2024/01/06 09:25:58;;;;;;;79.20;55.40;;;;;;;3.33;100.00;98005.15;109445;1252;59131;-75
2024/01/06 09:28:25;;;;;;;80.40;58.10;;;;;;;3.36;100.00;98001.98;109427;1252;59094;-75
2024/01/06 09:30:54;;;;;;;81.20;56.80;;;;;;;3.38;100.00;98001.36;109413;1252;67080;-74
2024/01/06 09:33:22;;;;;;;80.10;56.70;;;;;;;3.40;100.00;97999.67;109414;1252;60123;-74
2024/01/06 09:35:49;;;;;;;79.20;57.20;;;;;;;3.43;100.00;98001.45;109295;1252;63733;-74
2024/01/06 09:38:15;;;;;;;84.30;59.00;;;;;;;3.48;100.00;98001.89;109455;1252;59020;-74
2024/01/06 09:40:44;;;;;;;88.60;64.10;;;;;;;3.53;100.00;98001.95;109450;1252;59143;-73
2024/01/06 09:43:11;;;;;;;92.20;59.90;;;;;;;3.57;100.00;97999.80;109420;1252;67028;-73
2024/01/06 09:45:39;;;;;;;85.40;59.80;;;;;;;3.57;100.00;97997.69;109438;1253;60065;-74
2024/01/06 09:48:12;;;;;;;79.40;57.10;;;;;;;3.56;100.00;97999.67;109350;1252;64316;-74
2024/01/06 09:50:41;;;;;;;71.10;50.90;;;;;;;3.56;100.00;98000.23;109425;1252;59277;-74
2024/01/06 09:53:11;;;;;;;69.30;49.30;;;;;;;3.52;100.00;97999.17;109474;1252;58846;-74
2024/01/06 09:55:38;;;;;;;69.70;48.10;;;;;;;3.48;100.00;98000.83;109443;1252;67069;-74
2024/01/06 09:58:10;;;;;;;62.40;48.30;;;;;;;3.46;100.00;98002.33;109153;1252;61103;-74
2024/01/06 10:00:37;;;;;;;69.50;50.40;;;;;;;3.45;100.00;98003.43;109423;1252;65145;-75
2024/01/06 10:03:03;;;;;;;69.30;52.00;;;;;;;3.47;100.00;98000.86;109417;1252;59268;-75
2024/01/06 10:05:30;;;;;;;85.90;59.10;;;;;;;3.48;100.00;97998.90;109482;1252;58983;-74
2024/01/06 10:07:57;;;;;;;67.30;49.50;;;;;;;3.49;100.00;97996.17;109430;1252;67032;-74
2024/01/06 10:10:24;;;;;;;67.20;50.30;;;;;;;3.53;100.00;97995.99;109415;1256;60416;-74
2024/01/06 10:12:53;;;;;;;65.30;48.50;;;;;;;3.57;100.00;97995.27;109401;1252;64740;-75
2024/01/06 10:15:20;;;;;;;76.60;52.60;;;;;;;3.60;100.00;97996.84;109524;1251;59639;-77
2024/01/06 10:17:47;;;;;;;64.90;49.60;;;;;;;3.60;100.00;98000.16;109499;1252;59228;-80
2024/01/06 10:20:15;;;;;;;61.10;46.40;;;;;;;3.60;100.00;97998.45;109143;1252;66595;-77
2024/01/06 10:22:42;;;;;;;66.30;49.50;;;;;;;3.61;100.00;98000.50;109293;1252;59509;-81
2024/01/06 10:25:10;;;;;;;67.90;49.10;;;;;;;3.61;100.00;98000.82;109277;1252;65192;-75
2024/01/06 10:27:38;;;;;;;63.10;45.70;;;;;;;3.63;100.00;98004.21;109370;1252;59239;-77
2024/01/06 10:30:06;;;;;;;64.60;46.60;;;;;;;3.62;100.00;98003.20;109438;1252;59144;-78
2024/01/06 10:32:33;;;;;;;63.80;46.70;;;;;;;3.62;100.00;98003.23;109306;1251;65903;-74
2024/01/06 10:35:03;;;;;;;60.20;46.50;;;;;;;3.62;100.00;98003.94;109531;1251;60137;-73
2024/01/06 10:37:30;;;;;;;61.50;47.00;;;;;;;3.62;100.00;98002.48;109492;1251;72671;-74
2024/01/06 10:40:13;;;;;;;64.10;46.10;;;;;;;3.62;100.00;98002.52;109227;1252;59201;-74
2024/01/06 10:42:41;;;;;;;64.00;47.10;;;;;;;3.64;100.00;98001.16;109471;1252;59197;-73
2024/01/06 10:45:13;;;;;;;60.30;43.80;;;;;;;3.68;100.00;98000.45;109474;1255;67035;-73
2024/01/06 10:47:44;;;;;;;65.00;46.80;;;;;;;3.72;100.00;97996.90;109520;1252;60288;-74
2024/01/06 10:50:13;;;;;;;62.90;46.30;;;;;;;3.77;100.00;97991.49;109499;1253;65493;-74
2024/01/06 10:52:40;;;;;;;65.50;47.80;;;;;;;3.87;100.00;97989.92;109493;1251;59312;-73
2024/01/06 10:55:07;;;;;;;66.40;49.50;;;;;;;3.96;100.00;97990.29;109471;1251;58934;-73
2024/01/06 10:57:38;;;;;;;64.10;49.80;;;;;;;4.04;100.00;97988.95;108783;1251;1002503;-73
2024/01/06 11:00:05;;;;;;;61.90;46.90;;;;;;;4.07;100.00;97987.52;109491;1253;61441;-73
2024/01/06 11:02:33;;;;;;;57.90;46.60;;;;;;;4.11;100.00;97982.73;109225;1252;64061;-74
2024/01/06 11:05:00;;;;;;;60.00;47.80;;;;;;;4.13;100.00;97981.92;109527;1251;59301;-73